sensor_id;sensor_type;location;lat;lon;timestamp;pressure;altitude;pressure_sealevel;temperature
7389;BMP180;3735;50.136;11.062;2022-10-31T00:00:47;98639.00;;;8.80
7389;BMP180;3735;50.136;11.062;2022-10-31T00:03:13;98636.00;;;8.80
7389;BMP180;3735;50.136;11.062;2022-10-31T00:05:49;98632.00;;;8.80
7389;BMP180;3735;50.136;11.062;2022-10-31T00:08:16;98635.00;;;8.80
7389;BMP180;3735;50.136;11.062;2022-10-31T00:10:44;98635.00;;;8.70
7389;BMP180;3735;50.136;11.062;2022-10-31T00:13:12;98635.00;;;8.70
7389;BMP180;3735;50.136;11.062;2022-10-31T00:15:40;98632.00;;;8.60
7389;BMP180;3735;50.136;11.062;2022-10-31T00:18:08;98632.00;;;8.60
7389;BMP180;3735;50.136;11.062;2022-10-31T00:20:34;98633.00;;;8.60
7389;BMP180;3735;50.136;11.062;2022-10-31T00:23:04;98629.00;;;8.60
7389;BMP180;3735;50.136;11.062;2022-10-31T00:25:36;98627.00;;;8.50
7389;BMP180;3735;50.136;11.062;2022-10-31T00:28:05;98621.00;;;8.50
7389;BMP180;3735;50.136;11.062;2022-10-31T00:30:31;98622.00;;;8.40
7389;BMP180;3735;50.136;11.062;2022-10-31T00:32:57;98625.00;;;8.40
7389;BMP180;3735;50.136;11.062;2022-10-31T00:35:23;98633.00;;;8.50
7389;BMP180;3735;50.136;11.062;2022-10-31T00:37:49;98629.00;;;8.30
7389;BMP180;3735;50.136;11.062;2022-10-31T00:40:15;98632.00;;;8.30
7389;BMP180;3735;50.136;11.062;2022-10-31T00:42:41;98618.00;;;8.30
7389;BMP180;3735;50.136;11.062;2022-10-31T00:45:09;98624.00;;;8.20
7389;BMP180;3735;50.136;11.062;2022-10-31T00:47:35;98631.00;;;8.20
7389;BMP180;3735;50.136;11.062;2022-10-31T00:50:01;98614.00;;;8.10
7389;BMP180;3735;50.136;11.062;2022-10-31T00:52:27;98635.00;;;8.10
7389;BMP180;3735;50.136;11.062;2022-10-31T00:54:53;98624.00;;;8.10
7389;BMP180;3735;50.136;11.062;2022-10-31T00:57:18;98629.00;;;8.10
7389;BMP180;3735;50.136;11.062;2022-10-31T00:59:44;98633.00;;;8.20
7389;BMP180;3735;50.136;11.062;2022-10-31T01:02:10;98636.00;;;8.30
7389;BMP180;3735;50.136;11.062;2022-10-31T01:04:35;98634.00;;;8.30
7389;BMP180;3735;50.136;11.062;2022-10-31T01:07:01;98637.00;;;8.30
7389;BMP180;3735;50.136;11.062;2022-10-31T01:09:27;98615.00;;;8.40
7389;BMP180;3735;50.136;11.062;2022-10-31T01:11:53;98626.00;;;8.50
7389;BMP180;3735;50.136;11.062;2022-10-31T01:14:18;98634.00;;;8.40
7389;BMP180;3735;50.136;11.062;2022-10-31T01:16:44;98607.00;;;8.40
7389;BMP180;3735;50.136;11.062;2022-10-31T01:19:10;98630.00;;;8.40
7389;BMP180;3735;50.136;11.062;2022-10-31T01:21:36;98626.00;;;8.30
7389;BMP180;3735;50.136;11.062;2022-10-31T01:24:02;98631.00;;;8.30
7389;BMP180;3735;50.136;11.062;2022-10-31T01:26:31;98630.00;;;8.40
7389;BMP180;3735;50.136;11.062;2022-10-31T01:29:05;98638.00;;;8.30
7389;BMP180;3735;50.136;11.062;2022-10-31T01:31:38;98639.00;;;8.30
7389;BMP180;3735;50.136;11.062;2022-10-31T01:34:05;98634.00;;;8.30
7389;BMP180;3735;50.136;11.062;2022-10-31T01:36:37;98626.00;;;8.30
7389;BMP180;3735;50.136;11.062;2022-10-31T01:39:15;98636.00;;;8.40
7389;BMP180;3735;50.136;11.062;2022-10-31T01:41:47;98633.00;;;8.40
7389;BMP180;3735;50.136;11.062;2022-10-31T01:46:48;98636.00;;;8.30
7389;BMP180;3735;50.136;11.062;2022-10-31T01:49:24;98625.00;;;8.20
7389;BMP180;3735;50.136;11.062;2022-10-31T01:54:44;98631.00;;;8.40
7389;BMP180;3735;50.136;11.062;2022-10-31T01:57:14;98629.00;;;8.40
7389;BMP180;3735;50.136;11.062;2022-10-31T01:59:47;98627.00;;;8.40
7389;BMP180;3735;50.136;11.062;2022-10-31T02:02:15;98612.00;;;8.40
7389;BMP180;3735;50.136;11.062;2022-10-31T02:04:41;98624.00;;;8.40
7389;BMP180;3735;50.136;11.062;2022-10-31T02:07:14;98626.00;;;8.40
7389;BMP180;3735;50.136;11.062;2022-10-31T02:09:42;98616.00;;;8.40
7389;BMP180;3735;50.136;11.062;2022-10-31T02:12:10;98623.00;;;8.40
7389;BMP180;3735;50.136;11.062;2022-10-31T02:14:38;98610.00;;;8.30
7389;BMP180;3735;50.136;11.062;2022-10-31T02:17:04;98616.00;;;8.30
7389;BMP180;3735;50.136;11.062;2022-10-31T02:20:16;98609.00;;;8.30
7389;BMP180;3735;50.136;11.062;2022-10-31T02:23:15;98621.00;;;8.20
7389;BMP180;3735;50.136;11.062;2022-10-31T02:29:21;98626.00;;;8.10
7389;BMP180;3735;50.136;11.062;2022-10-31T02:31:56;98622.00;;;8.10
7389;BMP180;3735;50.136;11.062;2022-10-31T02:43:18;98609.00;;;8.20
7389;BMP180;3735;50.136;11.062;2022-10-31T02:46:07;98614.00;;;8.30
7389;BMP180;3735;50.136;11.062;2022-10-31T02:48:37;98623.00;;;8.40
7389;BMP180;3735;50.136;11.062;2022-10-31T02:51:05;98616.00;;;8.50
7389;BMP180;3735;50.136;11.062;2022-10-31T02:53:36;98602.00;;;8.50
7389;BMP180;3735;50.136;11.062;2022-10-31T02:56:11;98623.00;;;8.60
7389;BMP180;3735;50.136;11.062;2022-10-31T02:58:43;98613.00;;;8.60
7389;BMP180;3735;50.136;11.062;2022-10-31T03:01:29;98612.00;;;8.60
7389;BMP180;3735;50.136;11.062;2022-10-31T03:09:42;98622.00;;;8.80
7389;BMP180;3735;50.136;11.062;2022-10-31T03:15:39;98628.00;;;8.90
7389;BMP180;3735;50.136;11.062;2022-10-31T03:18:23;98609.00;;;8.90
7389;BMP180;3735;50.136;11.062;2022-10-31T03:21:01;98627.00;;;9.00
7389;BMP180;3735;50.136;11.062;2022-10-31T03:23:32;98622.00;;;9.10
7389;BMP180;3735;50.136;11.062;2022-10-31T03:26:03;98635.00;;;9.10
7389;BMP180;3735;50.136;11.062;2022-10-31T03:28:37;98623.00;;;9.10
7389;BMP180;3735;50.136;11.062;2022-10-31T03:31:06;98627.00;;;9.10
7389;BMP180;3735;50.136;11.062;2022-10-31T03:33:36;98623.00;;;9.10
7389;BMP180;3735;50.136;11.062;2022-10-31T03:36:07;98622.00;;;9.00
7389;BMP180;3735;50.136;11.062;2022-10-31T03:38:35;98626.00;;;9.00
7389;BMP180;3735;50.136;11.062;2022-10-31T03:41:05;98615.00;;;9.00
7389;BMP180;3735;50.136;11.062;2022-10-31T03:43:42;98624.00;;;8.90
7389;BMP180;3735;50.136;11.062;2022-10-31T03:46:09;98617.00;;;8.80
7389;BMP180;3735;50.136;11.062;2022-10-31T03:48:35;98618.00;;;8.70
7389;BMP180;3735;50.136;11.062;2022-10-31T03:51:42;98617.00;;;8.60
7389;BMP180;3735;50.136;11.062;2022-10-31T03:54:30;98619.00;;;8.60
7389;BMP180;3735;50.136;11.062;2022-10-31T03:57:10;98615.00;;;8.50
7389;BMP180;3735;50.136;11.062;2022-10-31T04:00:02;98617.00;;;8.30
7389;BMP180;3735;50.136;11.062;2022-10-31T04:02:33;98622.00;;;8.20
7389;BMP180;3735;50.136;11.062;2022-10-31T04:05:01;98613.00;;;8.20
7389;BMP180;3735;50.136;11.062;2022-10-31T04:07:34;98615.00;;;8.10
7389;BMP180;3735;50.136;11.062;2022-10-31T04:10:07;98612.00;;;8.10
7389;BMP180;3735;50.136;11.062;2022-10-31T04:12:35;98614.00;;;8.10
7389;BMP180;3735;50.136;11.062;2022-10-31T04:15:05;98620.00;;;8.10
7389;BMP180;3735;50.136;11.062;2022-10-31T04:17:37;98622.00;;;8.10
7389;BMP180;3735;50.136;11.062;2022-10-31T04:20:05;98630.00;;;8.10
7389;BMP180;3735;50.136;11.062;2022-10-31T04:22:31;98629.00;;;8.20
7389;BMP180;3735;50.136;11.062;2022-10-31T04:24:57;98630.00;;;8.30
7389;BMP180;3735;50.136;11.062;2022-10-31T04:27:22;98637.00;;;8.40
7389;BMP180;3735;50.136;11.062;2022-10-31T04:29:48;98625.00;;;8.50
7389;BMP180;3735;50.136;11.062;2022-10-31T04:32:14;98633.00;;;8.60
7389;BMP180;3735;50.136;11.062;2022-10-31T04:34:40;98643.00;;;8.60
7389;BMP180;3735;50.136;11.062;2022-10-31T04:37:05;98645.00;;;8.70
7389;BMP180;3735;50.136;11.062;2022-10-31T04:39:31;98631.00;;;8.70
7389;BMP180;3735;50.136;11.062;2022-10-31T04:41:57;98634.00;;;8.80
7389;BMP180;3735;50.136;11.062;2022-10-31T04:44:23;98637.00;;;8.80
7389;BMP180;3735;50.136;11.062;2022-10-31T04:46:49;98639.00;;;8.80
7389;BMP180;3735;50.136;11.062;2022-10-31T04:49:14;98637.00;;;8.90
7389;BMP180;3735;50.136;11.062;2022-10-31T04:51:40;98647.00;;;8.90
7389;BMP180;3735;50.136;11.062;2022-10-31T04:54:06;98645.00;;;8.80
7389;BMP180;3735;50.136;11.062;2022-10-31T04:56:32;98639.00;;;8.90
7389;BMP180;3735;50.136;11.062;2022-10-31T04:58:58;98644.00;;;8.90
7389;BMP180;3735;50.136;11.062;2022-10-31T05:01:23;98638.00;;;8.90
7389;BMP180;3735;50.136;11.062;2022-10-31T05:03:49;98638.00;;;8.90
7389;BMP180;3735;50.136;11.062;2022-10-31T05:06:15;98637.00;;;8.90
7389;BMP180;3735;50.136;11.062;2022-10-31T05:08:42;98634.00;;;8.80
7389;BMP180;3735;50.136;11.062;2022-10-31T05:11:07;98639.00;;;8.90
7389;BMP180;3735;50.136;11.062;2022-10-31T05:13:33;98628.00;;;8.90
7389;BMP180;3735;50.136;11.062;2022-10-31T05:15:59;98630.00;;;8.90
7389;BMP180;3735;50.136;11.062;2022-10-31T05:18:25;98632.00;;;9.00
7389;BMP180;3735;50.136;11.062;2022-10-31T05:20:50;98633.00;;;9.00
7389;BMP180;3735;50.136;11.062;2022-10-31T05:23:16;98633.00;;;9.00
7389;BMP180;3735;50.136;11.062;2022-10-31T05:25:42;98627.00;;;9.00
7389;BMP180;3735;50.136;11.062;2022-10-31T05:28:08;98627.00;;;8.90
7389;BMP180;3735;50.136;11.062;2022-10-31T05:30:36;98633.00;;;8.80
7389;BMP180;3735;50.136;11.062;2022-10-31T05:33:02;98628.00;;;8.80
7389;BMP180;3735;50.136;11.062;2022-10-31T05:35:31;98628.00;;;8.80
7389;BMP180;3735;50.136;11.062;2022-10-31T05:37:58;98631.00;;;8.80
7389;BMP180;3735;50.136;11.062;2022-10-31T05:40:26;98625.00;;;8.80
7389;BMP180;3735;50.136;11.062;2022-10-31T05:42:55;98624.00;;;8.80
7389;BMP180;3735;50.136;11.062;2022-10-31T05:45:22;98618.00;;;8.70
7389;BMP180;3735;50.136;11.062;2022-10-31T05:47:59;98619.00;;;8.60
7389;BMP180;3735;50.136;11.062;2022-10-31T05:50:28;98624.00;;;8.50
7389;BMP180;3735;50.136;11.062;2022-10-31T05:52:59;98629.00;;;8.40
7389;BMP180;3735;50.136;11.062;2022-10-31T05:55:26;98626.00;;;8.30
7389;BMP180;3735;50.136;11.062;2022-10-31T05:57:54;98627.00;;;8.30
7389;BMP180;3735;50.136;11.062;2022-10-31T06:00:21;98629.00;;;8.30
7389;BMP180;3735;50.136;11.062;2022-10-31T06:02:48;98630.00;;;8.30
7389;BMP180;3735;50.136;11.062;2022-10-31T06:05:15;98624.00;;;8.20
7389;BMP180;3735;50.136;11.062;2022-10-31T06:07:42;98627.00;;;8.10
7389;BMP180;3735;50.136;11.062;2022-10-31T06:10:08;98623.00;;;8.10
7389;BMP180;3735;50.136;11.062;2022-10-31T06:12:35;98619.00;;;8.00
7389;BMP180;3735;50.136;11.062;2022-10-31T06:15:08;98606.00;;;8.00
7389;BMP180;3735;50.136;11.062;2022-10-31T06:17:34;98617.00;;;7.90
7389;BMP180;3735;50.136;11.062;2022-10-31T06:20:01;98615.00;;;8.00
7389;BMP180;3735;50.136;11.062;2022-10-31T06:22:27;98623.00;;;8.00
7389;BMP180;3735;50.136;11.062;2022-10-31T06:24:53;98615.00;;;8.00
7389;BMP180;3735;50.136;11.062;2022-10-31T06:27:19;98618.00;;;8.10
7389;BMP180;3735;50.136;11.062;2022-10-31T06:29:45;98604.00;;;8.10
7389;BMP180;3735;50.136;11.062;2022-10-31T06:32:12;98623.00;;;8.10
7389;BMP180;3735;50.136;11.062;2022-10-31T06:34:39;98631.00;;;8.10
7389;BMP180;3735;50.136;11.062;2022-10-31T06:37:10;98622.00;;;8.20
7389;BMP180;3735;50.136;11.062;2022-10-31T06:39:36;98623.00;;;8.20
7389;BMP180;3735;50.136;11.062;2022-10-31T06:42:03;98627.00;;;8.30
7389;BMP180;3735;50.136;11.062;2022-10-31T06:44:31;98626.00;;;8.40
7389;BMP180;3735;50.136;11.062;2022-10-31T06:46:57;98624.00;;;8.50
7389;BMP180;3735;50.136;11.062;2022-10-31T06:49:22;98613.00;;;8.60
7389;BMP180;3735;50.136;11.062;2022-10-31T06:51:49;98622.00;;;8.60
7389;BMP180;3735;50.136;11.062;2022-10-31T06:54:16;98626.00;;;8.70
7389;BMP180;3735;50.136;11.062;2022-10-31T06:56:42;98629.00;;;8.70
7389;BMP180;3735;50.136;11.062;2022-10-31T06:59:08;98635.00;;;8.80
7389;BMP180;3735;50.136;11.062;2022-10-31T07:01:34;98637.00;;;8.80
7389;BMP180;3735;50.136;11.062;2022-10-31T07:03:59;98632.00;;;8.90
7389;BMP180;3735;50.136;11.062;2022-10-31T07:06:25;98631.00;;;8.90
7389;BMP180;3735;50.136;11.062;2022-10-31T07:08:51;98644.00;;;9.00
7389;BMP180;3735;50.136;11.062;2022-10-31T07:11:16;98639.00;;;9.10
7389;BMP180;3735;50.136;11.062;2022-10-31T07:13:42;98644.00;;;9.30
7389;BMP180;3735;50.136;11.062;2022-10-31T07:16:08;98643.00;;;9.40
7389;BMP180;3735;50.136;11.062;2022-10-31T07:18:37;98646.00;;;9.50
7389;BMP180;3735;50.136;11.062;2022-10-31T07:21:03;98649.00;;;9.60
7389;BMP180;3735;50.136;11.062;2022-10-31T07:23:29;98640.00;;;9.60
7389;BMP180;3735;50.136;11.062;2022-10-31T07:25:57;98634.00;;;9.80
7389;BMP180;3735;50.136;11.062;2022-10-31T07:28:25;98633.00;;;10.00
7389;BMP180;3735;50.136;11.062;2022-10-31T07:30:56;98634.00;;;10.00
7389;BMP180;3735;50.136;11.062;2022-10-31T07:33:23;98638.00;;;10.10
7389;BMP180;3735;50.136;11.062;2022-10-31T07:35:51;98636.00;;;10.00
7389;BMP180;3735;50.136;11.062;2022-10-31T07:38:17;98637.00;;;10.10
7389;BMP180;3735;50.136;11.062;2022-10-31T07:40:43;98642.00;;;10.20
7389;BMP180;3735;50.136;11.062;2022-10-31T07:43:11;98652.00;;;10.20
7389;BMP180;3735;50.136;11.062;2022-10-31T07:45:37;98646.00;;;10.20
7389;BMP180;3735;50.136;11.062;2022-10-31T07:48:04;98649.00;;;10.20
7389;BMP180;3735;50.136;11.062;2022-10-31T07:50:31;98644.00;;;10.20
7389;BMP180;3735;50.136;11.062;2022-10-31T07:53:05;98645.00;;;10.20
7389;BMP180;3735;50.136;11.062;2022-10-31T07:55:32;98644.00;;;10.30
7389;BMP180;3735;50.136;11.062;2022-10-31T07:58:01;98645.00;;;10.20
7389;BMP180;3735;50.136;11.062;2022-10-31T08:00:28;98641.00;;;10.20
7389;BMP180;3735;50.136;11.062;2022-10-31T08:03:06;98649.00;;;10.10
7389;BMP180;3735;50.136;11.062;2022-10-31T08:05:33;98639.00;;;10.50
7389;BMP180;3735;50.136;11.062;2022-10-31T08:07:59;98639.00;;;10.50
7389;BMP180;3735;50.136;11.062;2022-10-31T08:10:27;98640.00;;;10.60
7389;BMP180;3735;50.136;11.062;2022-10-31T08:13:03;98630.00;;;10.90
7389;BMP180;3735;50.136;11.062;2022-10-31T08:15:30;98634.00;;;11.00
7389;BMP180;3735;50.136;11.062;2022-10-31T08:17:56;98626.00;;;11.20
7389;BMP180;3735;50.136;11.062;2022-10-31T08:20:22;98632.00;;;11.50
7389;BMP180;3735;50.136;11.062;2022-10-31T08:22:58;98627.00;;;11.90
7389;BMP180;3735;50.136;11.062;2022-10-31T08:25:26;98625.00;;;12.10
7389;BMP180;3735;50.136;11.062;2022-10-31T08:27:54;98618.00;;;12.60
7389;BMP180;3735;50.136;11.062;2022-10-31T08:30:23;98616.00;;;12.80
7389;BMP180;3735;50.136;11.062;2022-10-31T08:33:08;98611.00;;;12.90
7389;BMP180;3735;50.136;11.062;2022-10-31T08:35:34;98619.00;;;13.10
7389;BMP180;3735;50.136;11.062;2022-10-31T08:38:01;98609.00;;;13.20
7389;BMP180;3735;50.136;11.062;2022-10-31T08:40:29;98613.00;;;13.50
7389;BMP180;3735;50.136;11.062;2022-10-31T08:43:05;98609.00;;;13.50
7389;BMP180;3735;50.136;11.062;2022-10-31T08:45:33;98618.00;;;13.70
7389;BMP180;3735;50.136;11.062;2022-10-31T08:48:03;98615.00;;;13.80
7389;BMP180;3735;50.136;11.062;2022-10-31T08:50:31;98608.00;;;13.80
7389;BMP180;3735;50.136;11.062;2022-10-31T08:53:11;98616.00;;;13.80
7389;BMP180;3735;50.136;11.062;2022-10-31T08:55:39;98606.00;;;14.00
7389;BMP180;3735;50.136;11.062;2022-10-31T08:58:11;98607.00;;;14.00
7389;BMP180;3735;50.136;11.062;2022-10-31T09:00:37;98604.00;;;14.10
7389;BMP180;3735;50.136;11.062;2022-10-31T09:03:13;98594.00;;;14.50
7389;BMP180;3735;50.136;11.062;2022-10-31T09:05:40;98614.00;;;14.70
7389;BMP180;3735;50.136;11.062;2022-10-31T09:08:07;98611.00;;;15.20
7389;BMP180;3735;50.136;11.062;2022-10-31T09:10:36;98595.00;;;15.70
7389;BMP180;3735;50.136;11.062;2022-10-31T09:13:10;98587.00;;;16.60
7389;BMP180;3735;50.136;11.062;2022-10-31T09:15:40;98600.00;;;17.60
7389;BMP180;3735;50.136;11.062;2022-10-31T09:18:07;98594.00;;;18.30
7389;BMP180;3735;50.136;11.062;2022-10-31T09:20:36;98580.00;;;19.00
7389;BMP180;3735;50.136;11.062;2022-10-31T09:23:20;98588.00;;;19.40
7389;BMP180;3735;50.136;11.062;2022-10-31T09:25:49;98590.00;;;19.50
7389;BMP180;3735;50.136;11.062;2022-10-31T09:28:21;98587.00;;;19.90
7389;BMP180;3735;50.136;11.062;2022-10-31T09:30:51;98583.00;;;20.00
7389;BMP180;3735;50.136;11.062;2022-10-31T09:33:18;98585.00;;;20.50
7389;BMP180;3735;50.136;11.062;2022-10-31T09:35:44;98579.00;;;21.00
7389;BMP180;3735;50.136;11.062;2022-10-31T09:38:16;98582.00;;;21.10
7389;BMP180;3735;50.136;11.062;2022-10-31T09:41:07;98582.00;;;21.40
7389;BMP180;3735;50.136;11.062;2022-10-31T09:43:47;98578.00;;;21.80
7389;BMP180;3735;50.136;11.062;2022-10-31T09:46:52;98574.00;;;22.50
7389;BMP180;3735;50.136;11.062;2022-10-31T09:55:19;98570.00;;;23.40
7389;BMP180;3735;50.136;11.062;2022-10-31T09:57:47;98576.00;;;23.20
7389;BMP180;3735;50.136;11.062;2022-10-31T10:00:20;98577.00;;;22.70
7389;BMP180;3735;50.136;11.062;2022-10-31T10:03:28;98577.00;;;23.40
7389;BMP180;3735;50.136;11.062;2022-10-31T10:06:35;98572.00;;;23.50
7389;BMP180;3735;50.136;11.062;2022-10-31T10:09:03;98571.00;;;23.30
7389;BMP180;3735;50.136;11.062;2022-10-31T10:15:02;98574.00;;;22.70
7389;BMP180;3735;50.136;11.062;2022-10-31T10:20:24;98568.00;;;22.80
7389;BMP180;3735;50.136;11.062;2022-10-31T10:26:13;98563.00;;;23.30
7389;BMP180;3735;50.136;11.062;2022-10-31T10:28:47;98567.00;;;23.70
7389;BMP180;3735;50.136;11.062;2022-10-31T10:31:16;98565.00;;;23.80
7389;BMP180;3735;50.136;11.062;2022-10-31T10:34:17;98567.00;;;23.80
7389;BMP180;3735;50.136;11.062;2022-10-31T10:36:53;98561.00;;;23.70
7389;BMP180;3735;50.136;11.062;2022-10-31T10:39:38;98558.00;;;23.40
7389;BMP180;3735;50.136;11.062;2022-10-31T10:42:13;98562.00;;;23.30
7389;BMP180;3735;50.136;11.062;2022-10-31T10:44:59;98558.00;;;23.20
7389;BMP180;3735;50.136;11.062;2022-10-31T10:47:55;98556.00;;;23.30
7389;BMP180;3735;50.136;11.062;2022-10-31T10:50:36;98554.00;;;23.00
7389;BMP180;3735;50.136;11.062;2022-10-31T10:53:34;98553.00;;;23.00
7389;BMP180;3735;50.136;11.062;2022-10-31T10:59:13;98546.00;;;23.50
7389;BMP180;3735;50.136;11.062;2022-10-31T11:01:41;98543.00;;;23.60
7389;BMP180;3735;50.136;11.062;2022-10-31T11:04:35;98550.00;;;23.80
7389;BMP180;3735;50.136;11.062;2022-10-31T11:07:11;98535.00;;;24.40
7389;BMP180;3735;50.136;11.062;2022-10-31T11:09:38;98537.00;;;24.10
7389;BMP180;3735;50.136;11.062;2022-10-31T11:12:27;98524.00;;;24.50
7389;BMP180;3735;50.136;11.062;2022-10-31T11:15:02;98522.00;;;24.80
7389;BMP180;3735;50.136;11.062;2022-10-31T11:17:39;98524.00;;;24.40
7389;BMP180;3735;50.136;11.062;2022-10-31T11:22:48;98520.00;;;23.80
7389;BMP180;3735;50.136;11.062;2022-10-31T11:25:25;98515.00;;;24.10
7389;BMP180;3735;50.136;11.062;2022-10-31T11:28:09;98507.00;;;24.00
7389;BMP180;3735;50.136;11.062;2022-10-31T11:30:57;98512.00;;;24.00
7389;BMP180;3735;50.136;11.062;2022-10-31T11:33:39;98507.00;;;23.70
7389;BMP180;3735;50.136;11.062;2022-10-31T11:36:20;98491.00;;;24.00
7389;BMP180;3735;50.136;11.062;2022-10-31T11:38:47;98505.00;;;23.90
7389;BMP180;3735;50.136;11.062;2022-10-31T11:41:25;98500.00;;;23.50
7389;BMP180;3735;50.136;11.062;2022-10-31T11:44:04;98499.00;;;23.50
7389;BMP180;3735;50.136;11.062;2022-10-31T11:46:37;98503.00;;;23.00
7389;BMP180;3735;50.136;11.062;2022-10-31T11:49:05;98496.00;;;23.10
7389;BMP180;3735;50.136;11.062;2022-10-31T11:51:36;98499.00;;;23.00
7389;BMP180;3735;50.136;11.062;2022-10-31T11:54:04;98497.00;;;23.00
7389;BMP180;3735;50.136;11.062;2022-10-31T11:56:41;98495.00;;;23.00
7389;BMP180;3735;50.136;11.062;2022-10-31T11:59:25;98493.00;;;22.80
7389;BMP180;3735;50.136;11.062;2022-10-31T12:01:54;98497.00;;;22.70
7389;BMP180;3735;50.136;11.062;2022-10-31T12:04:38;98491.00;;;22.30
7389;BMP180;3735;50.136;11.062;2022-10-31T12:07:06;98485.00;;;22.30
7389;BMP180;3735;50.136;11.062;2022-10-31T12:09:36;98493.00;;;22.40
7389;BMP180;3735;50.136;11.062;2022-10-31T12:15:35;98488.00;;;22.30
7389;BMP180;3735;50.136;11.062;2022-10-31T12:18:34;98477.00;;;22.00
7389;BMP180;3735;50.136;11.062;2022-10-31T12:35:10;98461.00;;;22.50
7389;BMP180;3735;50.136;11.062;2022-10-31T12:38:04;98463.00;;;22.40
7389;BMP180;3735;50.136;11.062;2022-10-31T12:40:53;98454.00;;;22.50
7389;BMP180;3735;50.136;11.062;2022-10-31T12:52:28;98443.00;;;22.20
7389;BMP180;3735;50.136;11.062;2022-10-31T13:00:44;98422.00;;;21.80
7389;BMP180;3735;50.136;11.062;2022-10-31T13:03:48;98426.00;;;21.70
7389;BMP180;3735;50.136;11.062;2022-10-31T13:06:23;98423.00;;;21.70
7389;BMP180;3735;50.136;11.062;2022-10-31T13:08:59;98417.00;;;21.70
7389;BMP180;3735;50.136;11.062;2022-10-31T13:11:32;98410.00;;;21.60
7389;BMP180;3735;50.136;11.062;2022-10-31T13:14:33;98402.00;;;21.40
7389;BMP180;3735;50.136;11.062;2022-10-31T13:17:02;98411.00;;;21.10
7389;BMP180;3735;50.136;11.062;2022-10-31T13:19:41;98402.00;;;20.90
7389;BMP180;3735;50.136;11.062;2022-10-31T13:22:27;98397.00;;;21.00
7389;BMP180;3735;50.136;11.062;2022-10-31T13:27:50;98390.00;;;20.90
7389;BMP180;3735;50.136;11.062;2022-10-31T13:30:21;98384.00;;;21.00
7389;BMP180;3735;50.136;11.062;2022-10-31T13:36:27;98389.00;;;20.90
7389;BMP180;3735;50.136;11.062;2022-10-31T13:42:31;98377.00;;;20.90
7389;BMP180;3735;50.136;11.062;2022-10-31T13:45:20;98378.00;;;20.90
7389;BMP180;3735;50.136;11.062;2022-10-31T13:48:39;98381.00;;;20.60
7389;BMP180;3735;50.136;11.062;2022-10-31T13:51:10;98374.00;;;20.50
7389;BMP180;3735;50.136;11.062;2022-10-31T13:53:56;98370.00;;;20.40
7389;BMP180;3735;50.136;11.062;2022-10-31T13:56:34;98368.00;;;20.30
7389;BMP180;3735;50.136;11.062;2022-10-31T14:01:36;98364.00;;;20.10
7389;BMP180;3735;50.136;11.062;2022-10-31T14:04:24;98361.00;;;19.90
7389;BMP180;3735;50.136;11.062;2022-10-31T14:07:14;98358.00;;;19.80
7389;BMP180;3735;50.136;11.062;2022-10-31T14:10:03;98359.00;;;19.60
7389;BMP180;3735;50.136;11.062;2022-10-31T14:12:45;98361.00;;;19.50
7389;BMP180;3735;50.136;11.062;2022-10-31T14:15:26;98356.00;;;19.50
7389;BMP180;3735;50.136;11.062;2022-10-31T14:18:02;98358.00;;;19.30
7389;BMP180;3735;50.136;11.062;2022-10-31T14:20:43;98344.00;;;19.30
7389;BMP180;3735;50.136;11.062;2022-10-31T14:29:00;98342.00;;;19.00
7389;BMP180;3735;50.136;11.062;2022-10-31T14:31:41;98335.00;;;18.80
7389;BMP180;3735;50.136;11.062;2022-10-31T14:34:55;98326.00;;;18.80
7389;BMP180;3735;50.136;11.062;2022-10-31T14:52:50;98293.00;;;18.10
7389;BMP180;3735;50.136;11.062;2022-10-31T14:55:18;98299.00;;;17.90
7389;BMP180;3735;50.136;11.062;2022-10-31T14:57:59;98294.00;;;17.80
7389;BMP180;3735;50.136;11.062;2022-10-31T15:00:28;98299.00;;;17.70
7389;BMP180;3735;50.136;11.062;2022-10-31T15:03:03;98294.00;;;17.60
7389;BMP180;3735;50.136;11.062;2022-10-31T15:05:34;98290.00;;;17.50
7389;BMP180;3735;50.136;11.062;2022-10-31T15:08:00;98290.00;;;17.30
7389;BMP180;3735;50.136;11.062;2022-10-31T15:10:32;98290.00;;;17.20
7389;BMP180;3735;50.136;11.062;2022-10-31T15:13:28;98283.00;;;17.00
7389;BMP180;3735;50.136;11.062;2022-10-31T15:15:55;98278.00;;;16.80
7389;BMP180;3735;50.136;11.062;2022-10-31T15:18:27;98288.00;;;16.70
7389;BMP180;3735;50.136;11.062;2022-10-31T15:20:56;98286.00;;;16.60
7389;BMP180;3735;50.136;11.062;2022-10-31T15:23:28;98283.00;;;16.50
7389;BMP180;3735;50.136;11.062;2022-10-31T15:26:04;98274.00;;;16.40
7389;BMP180;3735;50.136;11.062;2022-10-31T15:28:30;98281.00;;;16.20
7389;BMP180;3735;50.136;11.062;2022-10-31T15:31:02;98272.00;;;16.20
7389;BMP180;3735;50.136;11.062;2022-10-31T15:33:31;98263.00;;;16.10
7389;BMP180;3735;50.136;11.062;2022-10-31T15:36:00;98254.00;;;16.00
7389;BMP180;3735;50.136;11.062;2022-10-31T15:38:28;98258.00;;;15.80
7389;BMP180;3735;50.136;11.062;2022-10-31T15:43:27;98252.00;;;15.60
7389;BMP180;3735;50.136;11.062;2022-10-31T15:46:00;98242.00;;;15.50
7389;BMP180;3735;50.136;11.062;2022-10-31T15:48:27;98246.00;;;15.40
7389;BMP180;3735;50.136;11.062;2022-10-31T15:50:58;98249.00;;;15.40
7389;BMP180;3735;50.136;11.062;2022-10-31T15:53:42;98243.00;;;15.30
7389;BMP180;3735;50.136;11.062;2022-10-31T15:56:18;98233.00;;;15.30
7389;BMP180;3735;50.136;11.062;2022-10-31T15:58:50;98237.00;;;15.20
7389;BMP180;3735;50.136;11.062;2022-10-31T16:01:42;98242.00;;;15.10
7389;BMP180;3735;50.136;11.062;2022-10-31T16:06:36;98235.00;;;15.00
7389;BMP180;3735;50.136;11.062;2022-10-31T16:09:18;98227.00;;;15.00
7389;BMP180;3735;50.136;11.062;2022-10-31T16:11:46;98235.00;;;14.90
7389;BMP180;3735;50.136;11.062;2022-10-31T16:16:52;98244.00;;;14.80
7389;BMP180;3735;50.136;11.062;2022-10-31T16:19:33;98234.00;;;14.70
7389;BMP180;3735;50.136;11.062;2022-10-31T16:22:11;98238.00;;;14.60
7389;BMP180;3735;50.136;11.062;2022-10-31T16:24:48;98245.00;;;14.50
7389;BMP180;3735;50.136;11.062;2022-10-31T16:27:28;98238.00;;;14.40
7389;BMP180;3735;50.136;11.062;2022-10-31T16:29:59;98235.00;;;14.30
7389;BMP180;3735;50.136;11.062;2022-10-31T16:32:35;98237.00;;;14.30
7389;BMP180;3735;50.136;11.062;2022-10-31T16:37:33;98230.00;;;14.00
7389;BMP180;3735;50.136;11.062;2022-10-31T16:39:59;98244.00;;;14.00
7389;BMP180;3735;50.136;11.062;2022-10-31T16:42:26;98230.00;;;13.90
7389;BMP180;3735;50.136;11.062;2022-10-31T16:44:52;98235.00;;;13.80
7389;BMP180;3735;50.136;11.062;2022-10-31T16:47:19;98242.00;;;13.70
7389;BMP180;3735;50.136;11.062;2022-10-31T16:49:48;98243.00;;;13.70
7389;BMP180;3735;50.136;11.062;2022-10-31T16:52:16;98257.00;;;13.70
7389;BMP180;3735;50.136;11.062;2022-10-31T16:54:42;98241.00;;;13.60
7389;BMP180;3735;50.136;11.062;2022-10-31T16:57:25;98248.00;;;13.60
7389;BMP180;3735;50.136;11.062;2022-10-31T16:59:52;98252.00;;;13.60
7389;BMP180;3735;50.136;11.062;2022-10-31T17:02:22;98242.00;;;13.70